createdAt,value
2022-08-26T00:03:19.339Z,21.27
2022-08-26T00:08:21.027Z,21.22
2022-08-26T00:13:22.142Z,21.16
2022-08-26T00:18:23.530Z,21.09
2022-08-26T00:23:27.233Z,21.03
2022-08-26T00:28:30.996Z,20.97
2022-08-26T00:33:32.128Z,20.92
2022-08-26T00:38:35.285Z,20.91
2022-08-26T00:43:46.218Z,20.89
2022-08-26T00:48:53.136Z,20.85
2022-08-26T00:53:59.049Z,20.84
2022-08-26T00:59:05.842Z,20.81
2022-08-26T01:04:08.641Z,20.80
2022-08-26T01:09:09.893Z,20.78
2022-08-26T01:14:12.812Z,20.76
2022-08-26T01:19:36.717Z,20.74
2022-08-26T01:24:39.483Z,20.71
2022-08-26T01:29:43.614Z,20.69
2022-08-26T01:34:46.597Z,20.70
2022-08-26T01:39:53.023Z,20.69
2022-08-26T01:45:00.109Z,20.66
2022-08-26T01:50:06.805Z,20.59
2022-08-26T01:55:11.406Z,20.52
2022-08-26T02:00:13.714Z,20.48
2022-08-26T02:05:21.374Z,20.44
2022-08-26T02:10:23.435Z,20.38
2022-08-26T02:15:25.330Z,20.31
2022-08-26T02:20:26.865Z,20.23
2022-08-26T02:25:40.610Z,20.14
2022-08-26T02:30:42.681Z,20.06
2022-08-26T02:35:44.587Z,19.98
2022-08-26T02:40:45.859Z,19.87
2022-08-26T02:45:49.601Z,19.82
2022-08-26T02:50:51.029Z,19.80
2022-08-26T02:55:52.359Z,19.81
2022-08-26T03:00:53.801Z,19.83
2022-08-26T03:05:56.074Z,19.85
2022-08-26T03:10:57.239Z,19.84
2022-08-26T03:16:00.947Z,19.83
2022-08-26T03:21:14.640Z,19.82
2022-08-26T03:26:16.246Z,19.78
2022-08-26T03:31:17.639Z,19.75
2022-08-26T03:36:19.550Z,19.74
2022-08-26T03:41:21.029Z,19.70
2022-08-26T03:46:22.178Z,19.70
2022-08-26T03:51:23.355Z,19.73
2022-08-26T03:56:26.510Z,19.74
2022-08-26T04:01:29.035Z,19.74
2022-08-26T04:06:44.731Z,19.76
2022-08-26T04:11:47.496Z,19.82
2022-08-26T04:16:54.027Z,19.88
2022-08-26T04:21:56.789Z,19.92
2022-08-26T04:26:57.998Z,19.95
2022-08-26T04:31:59.223Z,19.94
2022-08-26T04:37:01.192Z,19.95
2022-08-26T04:42:02.394Z,20.04
2022-08-26T04:47:04.079Z,20.13
2022-08-26T04:52:05.452Z,20.28
2022-08-26T04:57:06.838Z,20.50
2022-08-26T05:02:08.085Z,20.74
2022-08-26T05:07:10.508Z,21.02
2022-08-26T05:12:11.645Z,21.30
2022-08-26T05:17:14.874Z,21.52
2022-08-26T05:22:16.677Z,21.82
2022-08-26T05:27:19.623Z,22.20
2022-08-26T05:32:20.847Z,22.63
2022-08-26T05:37:22.320Z,23.03
2022-08-26T05:42:23.545Z,23.43
2022-08-26T05:47:25.476Z,24.96
2022-08-26T05:52:26.694Z,27.70
2022-08-26T05:57:29.589Z,30.25
2022-08-26T06:02:30.942Z,32.28
2022-08-26T06:07:51.194Z,33.83
2022-08-26T06:12:52.364Z,35.10
2022-08-26T06:17:53.549Z,35.89
2022-08-26T06:23:13.325Z,36.76
2022-08-26T06:28:14.528Z,35.27
2022-08-26T06:33:16.146Z,32.72
2022-08-26T06:38:17.642Z,30.85
2022-08-26T06:43:24.448Z,30.02
2022-08-26T06:48:25.587Z,30.86
2022-08-26T06:53:28.059Z,32.65
2022-08-26T06:58:31.844Z,34.70
2022-08-26T07:03:34.963Z,36.08
2022-08-26T07:08:40.899Z,36.46
2022-08-26T07:13:42.426Z,36.62
2022-08-26T07:18:45.752Z,36.61
2022-08-26T07:23:48.160Z,36.63
2022-08-26T07:28:53.456Z,36.83
2022-08-26T07:33:54.920Z,37.13
2022-08-26T07:38:56.629Z,36.82
2022-08-26T07:43:57.868Z,36.56
2022-08-26T07:49:00.108Z,36.45
2022-08-26T07:54:01.331Z,35.62
2022-08-26T07:59:03.289Z,34.66
2022-08-26T08:04:17.179Z,32.82
2022-08-26T08:09:19.482Z,31.21
2022-08-26T08:14:23.446Z,30.54
2022-08-26T08:19:29.893Z,30.82
2022-08-26T08:24:40.270Z,30.26
2022-08-26T08:29:41.412Z,29.61
2022-08-26T08:39:44.846Z,29.55
2022-08-26T08:44:52.155Z,29.30
2022-08-26T08:49:59.551Z,29.02
2022-08-26T08:55:02.319Z,29.41
2022-08-26T09:00:21.653Z,29.80
2022-08-26T09:05:41.337Z,29.95
2022-08-26T09:10:51.480Z,29.88
2022-08-26T09:16:14.985Z,30.00
2022-08-26T09:21:19.271Z,30.25
2022-08-26T09:26:25.956Z,30.77
2022-08-26T09:31:36.216Z,31.11
2022-08-26T09:36:44.921Z,31.43
2022-08-26T09:42:02.750Z,31.95
2022-08-26T09:47:06.366Z,32.19
2022-08-26T09:52:27.076Z,32.20
2022-08-26T09:57:34.104Z,32.27
2022-08-26T10:02:40.847Z,32.40
2022-08-26T10:07:50.776Z,32.16
2022-08-26T10:13:02.688Z,32.02
2022-08-26T10:18:13.727Z,32.02
2022-08-26T10:23:17.810Z,32.31
2022-08-26T10:28:22.462Z,32.40
2022-08-26T10:33:24.647Z,32.33
2022-08-26T10:38:36.803Z,32.41
2022-08-26T10:43:54.351Z,32.42
2022-08-26T10:49:01.045Z,32.38
2022-08-26T10:54:13.920Z,32.27
2022-08-26T10:59:24.233Z,32.11
2022-08-26T11:04:48.871Z,31.87
2022-08-26T11:09:51.990Z,31.56
2022-08-26T11:14:58.869Z,31.46
2022-08-26T11:20:07.429Z,31.24
2022-08-26T11:25:15.549Z,31.01
2022-08-26T11:30:19.426Z,31.00
2022-08-26T11:35:20.966Z,31.00
2022-08-26T11:40:29.406Z,31.05
2022-08-26T11:45:38.498Z,31.07
2022-08-26T11:50:39.730Z,31.17
2022-08-26T11:55:44.072Z,31.27
2022-08-26T12:00:45.708Z,31.13
2022-08-26T12:05:51.244Z,31.00
2022-08-26T12:11:18.941Z,31.05
2022-08-26T12:16:24.751Z,31.24
2022-08-26T12:21:31.496Z,31.46
2022-08-26T12:26:36.373Z,31.53
2022-08-26T12:31:40.175Z,31.29
2022-08-26T12:36:48.040Z,31.01
2022-08-26T12:41:53.270Z,30.83
2022-08-26T12:47:03.312Z,30.82
2022-08-26T12:52:29.043Z,30.76
2022-08-26T12:57:34.478Z,30.73
2022-08-26T13:02:38.461Z,30.73
2022-08-26T13:07:40.547Z,30.78
2022-08-26T13:12:43.021Z,30.82
2022-08-26T13:17:44.208Z,30.86
2022-08-26T13:22:46.949Z,30.96
2022-08-26T13:27:59.635Z,31.18
2022-08-26T13:33:00.987Z,31.68
2022-08-26T13:38:04.190Z,32.17
2022-08-26T13:43:09.883Z,32.56
2022-08-26T13:48:11.443Z,32.83
2022-08-26T13:53:15.424Z,33.07
2022-08-26T13:58:16.645Z,33.14
2022-08-26T14:03:18.020Z,32.76
2022-08-26T14:08:21.566Z,32.45
2022-08-26T14:13:24.973Z,32.10
2022-08-26T14:18:42.039Z,31.70
2022-08-26T14:23:47.261Z,31.29
2022-08-26T14:28:50.979Z,30.92
2022-08-26T14:33:52.343Z,30.62
2022-08-26T14:39:01.096Z,30.65
2022-08-26T14:44:09.931Z,30.85
2022-08-26T14:49:11.891Z,31.03
2022-08-26T14:54:15.455Z,31.08
2022-08-26T14:59:28.423Z,31.14
2022-08-26T15:04:29.650Z,31.12
2022-08-26T15:09:34.303Z,31.13
2022-08-26T15:14:36.012Z,31.16
2022-08-26T15:19:38.301Z,31.18
2022-08-26T15:24:39.891Z,31.19
2022-08-26T15:29:41.070Z,31.19
2022-08-26T15:34:42.825Z,31.15
2022-08-26T15:39:44.033Z,31.09
2022-08-26T15:44:45.788Z,31.02
2022-08-26T15:49:47.408Z,31.05
2022-08-26T15:54:48.967Z,31.30
2022-08-26T15:59:51.852Z,31.23
2022-08-26T16:04:53.221Z,31.04
2022-08-26T16:09:56.648Z,30.84
2022-08-26T16:14:57.900Z,30.67
2022-08-26T16:19:59.580Z,30.48
2022-08-26T16:25:00.962Z,30.28
2022-08-26T16:30:06.403Z,30.11
2022-08-26T16:35:07.643Z,29.92
2022-08-26T16:40:09.815Z,29.75
2022-08-26T16:45:11.098Z,29.60
2022-08-26T16:50:12.799Z,29.41
2022-08-26T16:55:15.247Z,29.23
2022-08-26T17:00:27.334Z,29.03
2022-08-26T17:05:29.076Z,28.83
2022-08-26T17:10:30.892Z,28.69
2022-08-26T17:15:32.226Z,28.56
2022-08-26T17:20:33.540Z,28.34
2022-08-26T17:25:34.684Z,28.03
2022-08-26T17:30:37.213Z,27.65
2022-08-26T17:35:38.500Z,27.31
2022-08-26T17:40:39.846Z,26.97
2022-08-26T17:45:42.204Z,26.66
2022-08-26T17:50:43.495Z,26.43
2022-08-26T17:55:52.013Z,26.26
2022-08-26T18:00:54.106Z,26.13
2022-08-26T18:05:55.226Z,26.01
2022-08-26T18:10:57.437Z,25.89
2022-08-26T18:15:59.222Z,25.77
2022-08-26T18:21:03.218Z,25.63
2022-08-26T18:26:04.618Z,25.50
2022-08-26T18:31:08.379Z,25.39
2022-08-26T18:36:18.956Z,25.26
2022-08-26T18:41:23.219Z,25.15
2022-08-26T18:46:26.526Z,25.06
2022-08-26T18:51:30.422Z,24.96
2022-08-26T18:56:32.931Z,24.85
2022-08-26T19:01:36.160Z,24.79
2022-08-26T19:06:42.563Z,24.74
2022-08-26T19:11:44.678Z,24.64
2022-08-26T19:16:49.122Z,24.47
2022-08-26T19:21:52.459Z,24.31
2022-08-26T19:26:57.758Z,24.19
2022-08-26T19:31:59.458Z,24.07
2022-08-26T19:37:00.631Z,23.94
2022-08-26T19:42:01.803Z,23.81
2022-08-26T19:47:04.902Z,23.67
2022-08-26T19:52:06.658Z,23.52
2022-08-26T19:57:07.917Z,23.38
2022-08-26T20:02:11.292Z,23.26
2022-08-26T20:07:18.105Z,23.17
2022-08-26T20:12:20.147Z,23.07
2022-08-26T20:17:22.088Z,22.97
2022-08-26T20:22:24.011Z,22.90
2022-08-26T20:27:37.987Z,22.82
2022-08-26T20:32:41.009Z,22.72
2022-08-26T20:37:42.315Z,22.61
2022-08-26T20:42:44.955Z,22.51
2022-08-26T20:47:46.247Z,22.40
2022-08-26T20:52:47.416Z,22.30
2022-08-26T20:57:48.657Z,22.20
2022-08-26T21:02:49.920Z,22.10
2022-08-26T21:07:51.308Z,21.99
2022-08-26T21:12:52.656Z,21.90
2022-08-26T21:17:53.934Z,21.81
2022-08-26T21:22:55.341Z,21.72
2022-08-26T21:27:56.709Z,21.64
2022-08-26T21:48:17.208Z,21.48
2022-08-26T21:53:19.608Z,21.42
2022-08-26T21:58:20.872Z,21.37
2022-08-26T22:03:22.306Z,21.28
2022-08-26T22:08:23.499Z,21.20
2022-08-26T22:13:36.879Z,21.13
2022-08-26T22:18:40.265Z,21.06
2022-08-26T22:23:42.042Z,21.01
2022-08-26T22:28:43.505Z,20.98
2022-08-26T22:33:45.111Z,20.98
2022-08-26T22:38:46.970Z,20.96
2022-08-26T22:43:48.707Z,20.93
2022-08-26T22:48:53.754Z,20.89
2022-08-26T22:53:55.342Z,20.83
2022-08-26T22:58:56.574Z,20.77
2022-08-26T23:03:57.776Z,20.71
2022-08-26T23:08:59.204Z,20.66
2022-08-26T23:14:06.517Z,20.60
2022-08-26T23:19:11.085Z,20.55
2022-08-26T23:24:13.046Z,20.47
2022-08-26T23:29:15.112Z,20.40
2022-08-26T23:34:34.894Z,20.37
2022-08-26T23:39:36.432Z,20.36
2022-08-26T23:44:38.224Z,20.34
2022-08-26T23:49:39.986Z,20.33
2022-08-26T23:54:41.456Z,20.31
2022-08-26T23:59:42.759Z,20.26
